Time;durP1;ratioP1;P1;durP2;ratioP2;P2;SDS_P1;SDS_P2;PMS_P1;PMS_P2;Temp;Humidity;BMP_temperature;BMP_pressure;BME280_temperature;BME280_humidity;BME280_pressure;Samples;Min_cycle;Max_cycle;Signal;HPM_P1;HPM_P2
2022/12/29 00:02:22;;;;;;;3.43;2.70;;;10.10;99.90;;;;;;5038422;28;20037;-70
2022/12/29 00:04:50;;;;;;;4.53;2.63;;;10.10;99.90;;;;;;5020436;28;20045;-70
2022/12/29 00:07:16;;;;;;;2.95;1.98;;;10.20;99.90;;;;;;5011816;28;20044;-70
2022/12/29 00:09:42;;;;;;;3.50;1.88;;;10.20;99.90;;;;;;4995586;28;20475;-70
2022/12/29 00:12:07;;;;;;;2.83;1.83;;;10.20;99.90;;;;;;5029783;28;20052;-69
2022/12/29 00:17:17;;;;;;;2.33;1.83;;;10.30;99.90;;;;;;5038089;28;20362;-70
2022/12/29 00:36:36;;;;;;;4.20;2.47;;;10.40;99.90;;;;;;5011716;28;20053;-70
2022/12/29 00:44:37;;;;;;;3.25;2.20;;;10.50;99.90;;;;;;5024358;28;20490;-70
2022/12/29 00:47:04;;;;;;;3.60;2.40;;;10.50;99.90;;;;;;5038535;28;20045;-70
2022/12/29 00:49:30;;;;;;;4.20;2.45;;;10.50;99.90;;;;;;5045614;28;20112;-70
2022/12/29 00:52:01;;;;;;;4.85;2.38;;;10.50;99.90;;;;;;5042891;28;20045;-70
2022/12/29 00:54:29;;;;;;;3.13;2.20;;;10.50;99.90;;;;;;5012376;28;20148;-70
2022/12/29 00:56:55;;;;;;;3.80;2.20;;;10.50;99.90;;;;;;5023980;28;20070;-70
2022/12/29 00:59:21;;;;;;;5.20;2.80;;;10.40;99.90;;;;;;5013034;28;20050;-70
2022/12/29 01:01:47;;;;;;;2.63;2.03;;;10.50;99.90;;;;;;5010080;28;20518;-70
2022/12/29 01:04:15;;;;;;;4.03;2.72;;;10.50;99.90;;;;;;5010787;28;20455;-70
2022/12/29 01:06:41;;;;;;;3.30;2.10;;;10.50;99.90;;;;;;5018802;28;20071;-70
2022/12/29 01:11:52;;;;;;;4.43;2.13;;;10.50;99.90;;;;;;5010524;28;20353;-70
2022/12/29 01:14:19;;;;;;;3.00;2.10;;;10.50;99.90;;;;;;5002643;28;20049;-70
2022/12/29 01:16:45;;;;;;;5.55;2.22;;;10.50;99.90;;;;;;5027751;28;20044;-70
2022/12/29 01:19:11;;;;;;;4.85;2.60;;;10.60;99.90;;;;;;5031122;28;20473;-70
2022/12/29 01:21:36;;;;;;;3.20;2.10;;;10.50;99.90;;;;;;4994836;28;20065;-70
2022/12/29 01:24:05;;;;;;;4.77;1.80;;;10.50;99.90;;;;;;5030270;28;20033;-70
2022/12/29 01:26:30;;;;;;;3.83;2.05;;;10.50;99.90;;;;;;5041121;28;20068;-70
2022/12/29 01:28:56;;;;;;;3.15;2.20;;;10.50;99.90;;;;;;5010481;28;20529;-71
2022/12/29 01:31:22;;;;;;;4.90;2.57;;;10.50;99.90;;;;;;5028156;28;20049;-70
2022/12/29 01:33:48;;;;;;;3.90;2.50;;;10.50;99.90;;;;;;5028438;28;20725;-70
2022/12/29 01:36:16;;;;;;;3.00;2.17;;;10.50;99.90;;;;;;5027710;28;20082;-70
2022/12/29 01:38:45;;;;;;;4.15;1.85;;;10.50;99.90;;;;;;5012240;28;20499;-70
2022/12/29 01:41:13;;;;;;;4.80;2.33;;;10.40;99.90;;;;;;5018123;28;20041;-70
2022/12/29 01:43:47;;;;;;;4.20;2.17;;;10.40;99.90;;;;;;5028154;28;20162;-70
2022/12/29 01:46:25;;;;;;;4.05;2.25;;;10.40;99.90;;;;;;5028391;28;20152;-70
2022/12/29 01:49:22;;;;;;;3.83;2.22;;;10.40;99.90;;;;;;5010218;28;20479;-70
2022/12/29 01:51:53;;;;;;;3.38;2.15;;;10.40;99.90;;;;;;5035841;28;20130;-70
2022/12/29 01:54:31;;;;;;;3.65;2.40;;;10.30;99.90;;;;;;5021776;28;20060;-70
2022/12/29 01:57:04;;;;;;;3.90;2.22;;;10.30;99.90;;;;;;5006626;28;20058;-71
2022/12/29 01:59:34;;;;;;;4.63;2.60;;;10.30;99.90;;;;;;5044255;28;20051;-70
2022/12/29 02:02:01;;;;;;;4.95;2.33;;;10.30;99.90;;;;;;5006288;28;20057;-69
2022/12/29 02:04:32;;;;;;;5.88;2.97;;;10.30;99.90;;;;;;5030292;28;20163;-70
2022/12/29 02:07:03;;;;;;;5.28;2.20;;;10.20;99.90;;;;;;5009562;28;20406;-70
2022/12/29 02:09:29;;;;;;;3.83;2.42;;;10.30;99.90;;;;;;5027548;28;20049;-69
2022/12/29 02:11:57;;;;;;;6.72;3.38;;;10.20;99.90;;;;;;5020214;28;20068;-69
2022/12/29 02:14:23;;;;;;;2.90;2.10;;;10.20;99.90;;;;;;5009069;28;20045;-70
2022/12/29 02:16:57;;;;;;;5.10;2.53;;;10.20;99.90;;;;;;5030894;28;20051;-70
2022/12/29 02:19:53;;;;;;;4.22;2.05;;;10.20;99.90;;;;;;5025822;28;20381;-70
2022/12/29 02:22:37;;;;;;;3.55;2.10;;;10.20;99.90;;;;;;5007836;28;20048;-70
2022/12/29 02:25:24;;;;;;;3.53;2.20;;;10.20;99.90;;;;;;5007367;28;20104;-70
2022/12/29 02:27:54;;;;;;;3.08;1.30;;;10.20;99.90;;;;;;5018226;28;20061;-70
2022/12/29 02:30:58;;;;;;;2.72;1.70;;;10.20;99.90;;;;;;5005482;28;20061;-70
2022/12/29 02:33:55;;;;;;;2.60;1.63;;;10.20;99.90;;;;;;4938699;28;20046;-69
2022/12/29 02:36:44;;;;;;;3.80;1.38;;;10.20;99.90;;;;;;4957556;28;20088;-69
2022/12/29 02:39:41;;;;;;;3.35;1.67;;;10.20;99.90;;;;;;5009665;28;20056;-69
2022/12/29 02:42:44;;;;;;;5.70;1.92;;;10.20;99.90;;;;;;5007744;28;20087;-69
2022/12/29 02:45:26;;;;;;;8.55;1.83;;;10.30;99.90;;;;;;5008608;28;20123;-69
2022/12/29 02:48:04;;;;;;;1.77;1.15;;;10.30;99.90;;;;;;5029946;28;20589;-69
2022/12/29 02:50:40;;;;;;;1.88;1.00;;;10.30;99.90;;;;;;5014721;28;20051;-69
2022/12/29 02:53:17;;;;;;;0.90;0.70;;;10.30;99.90;;;;;;5021500;28;20148;-69
2022/12/29 02:55:50;;;;;;;2.10;1.27;;;10.30;99.90;;;;;;5026150;28;20135;-69
2022/12/29 02:58:21;;;;;;;1.60;1.10;;;10.40;99.90;;;;;;5008468;28;20099;-69
2022/12/29 03:01:01;;;;;;;2.20;0.85;;;10.40;99.90;;;;;;5030071;28;20506;-69
2022/12/29 03:03:56;;;;;;;1.45;0.88;;;10.40;99.90;;;;;;5008523;28;20044;-69
2022/12/29 03:06:51;;;;;;;1.23;0.80;;;10.40;99.90;;;;;;5025014;28;20060;-69
2022/12/29 03:09:17;;;;;;;2.38;1.05;;;10.40;99.90;;;;;;5003619;28;20136;-69
2022/12/29 03:12:08;;;;;;;2.57;0.90;;;10.40;99.90;;;;;;5028104;28;20052;-69
2022/12/29 03:17:43;;;;;;;3.50;0.82;;;10.40;99.90;;;;;;5013236;28;20049;-68
2022/12/29 03:20:19;;;;;;;2.25;1.10;;;10.30;99.90;;;;;;5017452;28;20061;-69
2022/12/29 03:22:49;;;;;;;2.17;0.80;;;10.20;99.90;;;;;;5017017;28;20494;-69
2022/12/29 03:25:17;;;;;;;3.22;0.70;;;10.20;99.90;;;;;;5031629;28;20041;-69
2022/12/29 03:27:48;;;;;;;1.50;0.85;;;10.20;99.90;;;;;;5039933;28;20107;-69
2022/12/29 03:30:14;;;;;;;2.13;0.75;;;10.10;99.90;;;;;;5002138;28;20447;-68
2022/12/29 03:32:52;;;;;;;2.17;1.05;;;10.00;99.90;;;;;;5034455;28;20045;-69
2022/12/29 03:35:21;;;;;;;1.27;0.57;;;10.00;99.90;;;;;;5012411;28;20049;-69
2022/12/29 03:38:06;;;;;;;1.02;0.73;;;9.90;99.90;;;;;;5041728;28;20033;-69
2022/12/29 03:40:34;;;;;;;3.22;0.95;;;9.90;99.90;;;;;;5014368;28;20067;-69
2022/12/29 03:43:01;;;;;;;1.25;0.77;;;9.90;99.90;;;;;;5028093;28;20470;-69
2022/12/29 03:45:27;;;;;;;2.53;0.90;;;9.90;99.90;;;;;;5041887;28;20045;-69
2022/12/29 03:47:53;;;;;;;2.93;1.10;;;9.90;99.90;;;;;;5039736;28;20041;-68
2022/12/29 03:50:19;;;;;;;;;;;9.80;99.90;;;;;;5014371;28;20094;-69
2022/12/29 03:52:44;;;;;;;2.20;0.90;;;9.80;99.90;;;;;;5041503;28;19916;-69
2022/12/29 03:55:10;;;;;;;1.03;0.60;;;9.80;99.90;;;;;;4997733;28;20064;-69
2022/12/29 03:57:36;;;;;;;3.53;1.30;;;9.80;99.90;;;;;;5032349;28;20124;-69
2022/12/29 04:00:04;;;;;;;2.08;0.95;;;9.80;99.90;;;;;;5024610;28;20527;-69
2022/12/29 04:02:30;;;;;;;2.15;0.90;;;9.70;99.90;;;;;;4998216;28;20057;-68
2022/12/29 04:04:56;;;;;;;2.83;0.80;;;9.70;99.90;;;;;;5006076;28;20037;-68
2022/12/29 04:07:21;;;;;;;1.20;0.70;;;9.70;99.90;;;;;;5029575;28;20303;-68
2022/12/29 04:09:47;;;;;;;7.53;1.23;;;9.70;99.90;;;;;;5030273;28;20489;-68
2022/12/29 04:12:14;;;;;;;2.30;0.70;;;9.80;99.90;;;;;;5046871;28;20063;-68
2022/12/29 04:14:39;;;;;;;;;;;9.80;99.90;;;;;;5022912;28;20195;-68
2022/12/29 04:17:08;;;;;;;2.40;0.60;;;9.80;99.90;;;;;;5012071;28;19921;-69
2022/12/29 04:19:33;;;;;;;3.77;0.77;;;9.70;99.90;;;;;;5030355;28;20064;-69
2022/12/29 04:21:59;;;;;;;4.33;1.10;;;9.80;99.90;;;;;;5032928;28;20495;-69
2022/12/29 04:24:25;;;;;;;2.97;0.53;;;9.80;99.90;;;;;;5022013;28;20041;-69
2022/12/29 04:26:50;;;;;;;4.87;1.07;;;9.80;99.90;;;;;;5016891;28;20116;-69
2022/12/29 04:29:16;;;;;;;2.43;0.87;;;9.70;99.90;;;;;;5032937;28;20124;-68
2022/12/29 04:31:44;;;;;;;2.43;0.87;;;9.70;99.90;;;;;;5031839;28;20037;-69
2022/12/29 04:34:09;;;;;;;4.15;0.90;;;9.60;99.90;;;;;;5023340;28;20434;-68
2022/12/29 04:36:35;;;;;;;3.83;0.50;;;9.60;99.90;;;;;;5029865;28;20234;-68
2022/12/29 04:39:01;;;;;;;3.10;0.60;;;9.60;99.90;;;;;;5041876;28;20063;-69
2022/12/29 04:41:27;;;;;;;6.72;1.20;;;9.60;99.90;;;;;;5038475;28;20455;-69
2022/12/29 04:43:53;;;;;;;1.65;0.82;;;9.50;99.90;;;;;;5016589;28;20113;-69
2022/12/29 04:46:19;;;;;;;3.23;0.50;;;9.50;99.90;;;;;;5026261;28;20037;-69
2022/12/29 04:48:44;;;;;;;3.73;1.07;;;9.40;99.90;;;;;;5020602;28;20051;-69
2022/12/29 04:51:10;;;;;;;7.10;0.80;;;9.40;99.90;;;;;;5046536;28;20286;-69
2022/12/29 04:53:35;;;;;;;3.70;0.50;;;9.30;99.90;;;;;;5049500;28;20470;-68
2022/12/29 04:56:01;;;;;;;3.60;0.70;;;9.30;99.90;;;;;;5048863;28;20049;-69
2022/12/29 04:58:27;;;;;;;6.07;0.90;;;9.30;99.90;;;;;;5032311;28;20061;-69
2022/12/29 05:00:53;;;;;;;4.30;1.27;;;9.30;99.90;;;;;;5009144;28;20496;-71
2022/12/29 05:03:21;;;;;;;9.83;1.23;;;9.30;99.90;;;;;;5041049;28;20037;-68
2022/12/29 05:05:46;;;;;;;6.22;1.05;;;9.20;99.90;;;;;;5029825;28;20041;-68
2022/12/29 05:08:12;;;;;;;6.27;1.10;;;9.20;99.90;;;;;;5009485;28;20060;-68
2022/12/29 05:10:38;;;;;;;8.10;1.33;;;9.20;99.90;;;;;;5009187;28;20108;-68
2022/12/29 05:13:03;;;;;;;5.47;0.95;;;9.20;99.90;;;;;;5008306;28;20084;-69
2022/12/29 05:15:29;;;;;;;9.05;0.90;;;9.20;99.90;;;;;;5040215;28;20135;-68
2022/12/29 05:17:55;;;;;;;6.93;1.27;;;9.10;99.90;;;;;;4994507;28;20045;-68
2022/12/29 05:20:20;;;;;;;4.27;1.23;;;9.10;99.90;;;;;;5010603;28;20056;-69
2022/12/29 05:22:46;;;;;;;5.40;0.67;;;9.10;99.90;;;;;;4994858;28;20041;-68
2022/12/29 05:25:12;;;;;;;8.13;1.23;;;9.10;99.90;;;;;;5012982;28;20388;-68
2022/12/29 05:27:37;;;;;;;4.90;1.10;;;9.00;99.90;;;;;;5022350;23;20040;-73
2022/12/29 05:30:03;;;;;;;3.40;0.87;;;9.00;99.90;;;;;;5049414;28;20044;-68
2022/12/29 05:32:29;;;;;;;11.98;1.67;;;9.10;99.90;;;;;;5042189;28;20521;-73
2022/12/29 05:34:54;;;;;;;5.90;1.50;;;9.10;99.90;;;;;;5047763;28;20048;-73
2022/12/29 05:37:20;;;;;;;5.03;1.20;;;9.10;99.90;;;;;;5031087;28;20057;-67
2022/12/29 05:39:46;;;;;;;11.00;1.50;;;9.10;99.90;;;;;;5029896;28;20042;-67
2022/12/29 05:42:11;;;;;;;10.77;1.27;;;9.10;99.90;;;;;;5023579;28;20104;-67
2022/12/29 05:44:37;;;;;;;5.57;1.10;;;9.20;99.90;;;;;;5026881;28;20057;-67
2022/12/29 05:47:03;;;;;;;8.43;1.20;;;9.20;99.90;;;;;;5023855;28;20041;-67
2022/12/29 05:49:28;;;;;;;2.03;0.80;;;9.20;99.90;;;;;;5023489;28;20124;-67
2022/12/29 05:51:54;;;;;;;4.40;1.03;;;9.20;99.90;;;;;;5025600;28;20136;-68
2022/12/29 05:54:20;;;;;;;9.82;1.75;;;9.30;99.90;;;;;;5028121;28;20545;-67
2022/12/29 05:56:45;;;;;;;3.73;1.10;;;9.30;99.90;;;;;;5029147;28;20041;-67
2022/12/29 05:59:11;;;;;;;8.07;2.17;;;9.30;99.90;;;;;;5028678;28;20044;-67
2022/12/29 06:01:37;;;;;;;18.67;2.87;;;9.30;99.90;;;;;;5028462;28;20045;-67
2022/12/29 06:04:02;;;;;;;6.53;1.27;;;9.40;99.90;;;;;;5030219;28;20411;-67
2022/12/29 06:06:28;;;;;;;18.93;1.20;;;9.40;99.90;;;;;;5026668;28;20160;-67
2022/12/29 06:08:54;;;;;;;7.53;1.17;;;9.30;99.90;;;;;;5018792;28;20136;-68
2022/12/29 06:11:19;;;;;;;6.47;1.10;;;9.40;99.90;;;;;;5030388;28;20286;-68
2022/12/29 06:13:48;;;;;;;8.48;0.98;;;9.30;99.90;;;;;;5028469;28;20045;-67
2022/12/29 06:16:15;;;;;;;6.03;1.27;;;9.30;99.90;;;;;;5024762;28;20044;-68
2022/12/29 06:18:43;;;;;;;4.20;0.93;;;9.30;99.90;;;;;;5029484;28;20096;-68
2022/12/29 06:21:11;;;;;;;3.53;0.93;;;9.20;99.90;;;;;;5027434;28;20426;-68
2022/12/29 06:23:37;;;;;;;9.90;1.48;;;9.20;99.90;;;;;;5024190;28;20037;-68
2022/12/29 06:26:02;;;;;;;5.43;1.37;;;9.20;99.90;;;;;;5022562;28;20474;-66
2022/12/29 06:28:31;;;;;;;10.60;2.05;;;9.20;99.90;;;;;;5026444;28;20116;-67
2022/12/29 06:30:57;;;;;;;6.57;1.35;;;9.20;99.90;;;;;;5026615;28;20073;-67
2022/12/29 06:33:22;;;;;;;4.87;1.40;;;9.20;99.90;;;;;;5024852;28;20450;-67
2022/12/29 06:35:48;;;;;;;10.80;2.07;;;9.10;99.90;;;;;;5031945;28;20381;-67
2022/12/29 06:38:14;;;;;;;12.20;1.50;;;9.10;99.90;;;;;;5027164;28;20120;-67
2022/12/29 06:40:41;;;;;;;7.87;1.40;;;9.10;99.90;;;;;;5032406;28;20324;-67
2022/12/29 06:43:07;;;;;;;6.57;1.23;;;9.10;99.90;;;;;;5027371;28;20049;-67
2022/12/29 06:45:32;;;;;;;6.50;1.00;;;9.00;99.90;;;;;;5022371;28;20079;-67
2022/12/29 06:47:58;;;;;;;9.97;1.57;;;9.10;99.90;;;;;;5023939;28;20281;-67
2022/12/29 06:50:26;;;;;;;6.43;1.00;;;9.00;99.90;;;;;;5031811;28;20044;-67
2022/12/29 06:52:52;;;;;;;5.53;1.30;;;9.00;99.90;;;;;;5029682;28;20493;-67
2022/12/29 06:55:18;;;;;;;8.47;1.80;;;9.00;99.90;;;;;;5029662;28;20132;-67
2022/12/29 06:57:43;;;;;;;3.90;1.07;;;9.00;99.90;;;;;;5027435;28;20045;-67
2022/12/29 07:00:09;;;;;;;10.53;1.73;;;9.00;99.90;;;;;;5029077;28;20418;-67
2022/12/29 07:02:35;;;;;;;11.05;1.80;;;9.00;99.90;;;;;;5019003;28;20132;-70
2022/12/29 07:05:01;;;;;;;11.30;2.47;;;9.10;99.90;;;;;;5026072;28;20124;-67
2022/12/29 07:07:26;;;;;;;9.93;1.47;;;9.10;99.90;;;;;;5030305;28;20045;-67
2022/12/29 07:09:52;;;;;;;11.53;1.40;;;9.10;99.90;;;;;;5028607;28;20380;-67
2022/12/29 07:12:17;;;;;;;9.43;1.20;;;9.10;99.90;;;;;;5025637;28;20045;-67
2022/12/29 07:14:43;;;;;;;11.23;2.03;;;9.10;99.90;;;;;;5013904;28;20575;-67
2022/12/29 07:17:09;;;;;;;17.30;1.97;;;9.10;99.90;;;;;;5024155;28;20080;-67
2022/12/29 07:19:36;;;;;;;8.70;1.50;;;9.10;99.90;;;;;;5025836;28;20131;-67
2022/12/29 07:22:02;;;;;;;6.53;1.20;;;9.20;99.90;;;;;;5027460;28;20060;-68
2022/12/29 07:24:29;;;;;;;7.17;1.47;;;9.20;99.90;;;;;;5024887;28;20683;-68
2022/12/29 07:26:55;;;;;;;6.45;1.40;;;9.20;99.90;;;;;;5024465;28;20049;-68
2022/12/29 07:29:23;;;;;;;7.43;1.40;;;9.20;99.90;;;;;;5017344;28;20037;-72
2022/12/29 07:31:48;;;;;;;7.60;1.38;;;9.20;99.90;;;;;;5018764;28;20101;-67
2022/12/29 07:34:14;;;;;;;13.27;1.33;;;9.20;99.90;;;;;;5026497;28;20052;-67
2022/12/29 07:36:39;;;;;;;10.17;1.63;;;9.20;99.90;;;;;;5024696;28;20156;-67
2022/12/29 07:39:05;;;;;;;6.87;1.10;;;9.20;99.90;;;;;;5025029;28;20510;-67
2022/12/29 07:41:31;;;;;;;9.63;1.33;;;9.10;99.90;;;;;;5006113;28;20045;-67
2022/12/29 07:43:56;;;;;;;5.27;1.67;;;9.20;99.90;;;;;;5030284;28;20416;-67
2022/12/29 07:46:22;;;;;;;10.57;1.80;;;9.20;99.90;;;;;;5024067;28;20359;-68
2022/12/29 07:48:48;;;;;;;7.10;1.17;;;9.20;99.90;;;;;;5023650;28;20533;-68
2022/12/29 07:51:13;;;;;;;9.87;1.70;;;9.20;99.90;;;;;;5020430;28;20064;-67
2022/12/29 07:53:39;;;;;;;6.13;1.20;;;9.20;99.90;;;;;;5027934;28;20125;-67
2022/12/29 07:56:05;;;;;;;10.00;1.40;;;9.20;99.90;;;;;;5029793;28;20069;-67
2022/12/29 07:58:31;;;;;;;;;;;9.20;99.90;;;;;;5027212;28;20056;-67
2022/12/29 08:00:57;;;;;;;4.72;1.02;;;9.20;99.90;;;;;;5029291;28;19925;-67
2022/12/29 08:03:24;;;;;;;14.73;1.77;;;9.20;99.90;;;;;;5008985;28;20041;-67
2022/12/29 08:05:50;;;;;;;17.85;2.78;;;9.20;99.90;;;;;;5024312;28;20064;-67
2022/12/29 08:08:15;;;;;;;5.87;1.30;;;9.20;99.90;;;;;;5026805;28;20045;-67
2022/12/29 08:10:41;;;;;;;7.00;1.73;;;9.20;99.90;;;;;;5031979;28;20126;-67
2022/12/29 08:13:07;;;;;;;9.80;2.07;;;9.30;99.90;;;;;;5022625;28;20040;-67
2022/12/29 08:15:32;;;;;;;7.95;1.08;;;9.30;99.90;;;;;;5031776;28;20121;-67
2022/12/29 08:17:58;;;;;;;8.63;2.37;;;9.30;99.90;;;;;;5031165;28;20049;-67
2022/12/29 08:20:24;;;;;;;16.08;2.50;;;9.30;99.90;;;;;;5026401;28;20045;-67
2022/12/29 08:22:51;;;;;;;10.70;1.77;;;9.30;99.90;;;;;;5033498;28;20283;-67
2022/12/29 08:25:16;;;;;;;9.40;1.35;;;9.30;99.90;;;;;;5030110;28;20290;-67
2022/12/29 08:27:42;;;;;;;5.47;1.57;;;9.20;99.90;;;;;;5026754;28;20049;-67
2022/12/29 08:30:08;;;;;;;16.93;2.03;;;9.30;99.90;;;;;;5028195;28;20051;-67
2022/12/29 08:32:34;;;;;;;10.98;2.60;;;9.30;99.90;;;;;;5038432;28;20400;-67
2022/12/29 08:35:00;;;;;;;14.97;1.97;;;9.30;99.90;;;;;;5027459;28;20057;-67
2022/12/29 08:37:26;;;;;;;22.15;2.28;;;9.30;99.90;;;;;;5022002;28;20099;-67
2022/12/29 08:39:51;;;;;;;14.30;2.05;;;9.30;99.90;;;;;;5022046;28;20044;-67
2022/12/29 08:42:17;;;;;;;10.23;3.13;;;9.20;99.90;;;;;;5023998;28;20049;-67
2022/12/29 08:44:43;;;;;;;8.60;1.50;;;9.30;99.90;;;;;;5028062;28;20049;-67
2022/12/29 08:47:10;;;;;;;16.07;2.10;;;9.30;99.90;;;;;;5025204;28;20494;-67
2022/12/29 08:49:36;;;;;;;12.85;1.75;;;9.30;99.90;;;;;;5027660;28;20030;-66
2022/12/29 08:52:02;;;;;;;7.17;1.60;;;9.30;99.90;;;;;;5031097;28;20198;-67
2022/12/29 08:54:27;;;;;;;11.50;1.90;;;9.40;99.90;;;;;;5030646;28;20415;-67
2022/12/29 08:56:53;;;;;;;12.47;1.70;;;9.40;99.90;;;;;;5030965;28;20037;-68
2022/12/29 08:59:19;;;;;;;8.70;2.00;;;9.20;99.90;;;;;;5030029;28;20053;-68
2022/12/29 09:01:45;;;;;;;8.35;2.17;;;9.40;99.90;;;;;;5034112;28;20045;-66
2022/12/29 09:04:11;;;;;;;11.75;2.10;;;9.30;99.90;;;;;;5031238;28;20422;-66
2022/12/29 09:06:37;;;;;;;;;;;9.30;99.90;;;;;;5028405;28;20056;-67
2022/12/29 09:09:03;;;;;;;10.35;1.48;;;9.30;99.90;;;;;;5027940;28;19917;-70
2022/12/29 09:11:28;;;;;;;7.87;2.17;;;9.30;99.90;;;;;;5028080;28;20064;-72
2022/12/29 09:13:54;;;;;;;9.03;2.37;;;9.30;99.90;;;;;;5008603;28;20057;-75
2022/12/29 09:16:22;;;;;;;10.30;2.72;;;9.30;99.90;;;;;;5025143;28;20649;-73
2022/12/29 09:18:48;;;;;;;14.73;2.40;;;9.30;99.90;;;;;;5025690;28;20057;-67
2022/12/29 09:21:14;;;;;;;5.90;1.50;;;9.30;99.90;;;;;;5035342;28;20123;-67
2022/12/29 09:23:40;;;;;;;17.37;2.03;;;9.20;99.90;;;;;;5010762;28;20126;-71
2022/12/29 09:26:07;;;;;;;10.75;1.55;;;9.30;99.90;;;;;;5030071;28;20141;-72
2022/12/29 09:28:33;;;;;;;12.15;1.73;;;9.30;99.90;;;;;;5029239;28;20045;-68
2022/12/29 09:30:59;;;;;;;8.13;1.45;;;9.20;99.90;;;;;;5021978;28;20049;-67
2022/12/29 09:33:25;;;;;;;9.07;1.67;;;9.20;99.90;;;;;;5024871;28;20085;-67
2022/12/29 09:35:53;;;;;;;10.85;2.08;;;9.20;99.90;;;;;;5028497;28;20064;-66
2022/12/29 09:38:20;;;;;;;12.30;1.70;;;9.30;99.90;;;;;;5025123;28;20095;-67
2022/12/29 09:40:50;;;;;;;9.75;1.70;;;9.30;99.90;;;;;;5029734;28;20133;-67
2022/12/29 09:43:38;;;;;;;6.03;1.33;;;9.30;99.90;;;;;;5027384;28;20356;-67
2022/12/29 09:46:03;;;;;;;9.57;1.85;;;9.30;99.90;;;;;;5028457;28;20070;-67
2022/12/29 09:48:39;;;;;;;7.53;1.83;;;9.30;99.90;;;;;;5033215;28;20065;-67
2022/12/29 09:51:11;;;;;;;16.63;2.60;;;9.20;99.90;;;;;;5029809;28;20045;-66
2022/12/29 09:53:44;;;;;;;10.35;1.17;;;9.20;99.90;;;;;;5033391;28;20340;-67
2022/12/29 09:56:21;;;;;;;7.60;1.73;;;9.20;99.90;;;;;;5025268;28;20045;-66
2022/12/29 09:58:52;;;;;;;;;;;9.20;99.90;;;;;;5008932;28;20049;-67
2022/12/29 10:01:25;;;;;;;9.65;1.98;;;9.10;99.90;;;;;;5028533;28;19927;-67
2022/12/29 10:03:55;;;;;;;6.60;1.17;;;9.10;99.90;;;;;;5036383;28;20044;-67
2022/12/29 10:06:35;;;;;;;4.88;1.70;;;9.00;99.90;;;;;;5013530;28;20047;-67
2022/12/29 10:09:25;;;;;;;15.60;1.83;;;9.00;99.90;;;;;;5014009;28;20128;-67
2022/12/29 10:12:06;;;;;;;8.88;1.40;;;9.00;99.90;;;;;;5028267;28;20036;-68
2022/12/29 10:14:59;;;;;;;8.32;1.80;;;9.00;99.90;;;;;;5027101;28;20095;-67
2022/12/29 10:17:28;;;;;;;9.07;1.77;;;8.90;99.90;;;;;;5020396;28;20041;-67
2022/12/29 10:20:19;;;;;;;7.28;1.30;;;8.90;99.90;;;;;;5031541;28;20105;-67
2022/12/29 10:23:03;;;;;;;8.13;2.35;;;8.90;99.90;;;;;;5026274;28;20041;-67
2022/12/29 10:25:34;;;;;;;7.10;1.60;;;8.80;99.90;;;;;;5027559;28;20502;-67
2022/12/29 10:28:05;;;;;;;11.43;2.00;;;8.80;99.90;;;;;;5027452;28;20553;-66
2022/12/29 10:30:34;;;;;;;8.93;1.95;;;8.80;99.90;;;;;;5030801;28;20127;-67
2022/12/29 10:33:04;;;;;;;8.93;1.48;;;8.80;99.90;;;;;;5030196;28;20119;-67
2022/12/29 10:35:37;;;;;;;16.67;1.75;;;8.80;99.90;;;;;;5029786;28;20056;-67
2022/12/29 10:38:30;;;;;;;9.32;2.00;;;8.80;99.90;;;;;;5017532;28;20042;-67
2022/12/29 10:41:05;;;;;;;14.02;2.33;;;8.80;99.90;;;;;;5028132;28;20049;-67
2022/12/29 10:43:42;;;;;;;12.35;1.92;;;8.90;99.90;;;;;;5024374;28;20045;-67
2022/12/29 10:46:15;;;;;;;9.77;1.80;;;8.90;99.90;;;;;;5028115;28;20041;-67
2022/12/29 10:48:45;;;;;;;7.40;1.67;;;8.90;99.90;;;;;;5027933;28;20569;-67
2022/12/29 10:51:41;;;;;;;9.77;1.90;;;8.90;99.90;;;;;;5030294;28;20093;-67
2022/12/29 10:54:16;;;;;;;13.45;2.22;;;8.90;99.90;;;;;;5030862;28;20045;-67
2022/12/29 10:56:52;;;;;;;9.27;2.75;;;9.00;99.90;;;;;;5029265;28;20398;-67
2022/12/29 10:59:32;;;;;;;11.95;2.35;;;9.00;99.90;;;;;;5026107;28;20045;-67
2022/12/29 11:02:53;;;;;;;14.50;2.83;;;9.00;99.90;;;;;;5021208;28;20044;-67
2022/12/29 11:05:38;;;;;;;7.05;1.98;;;9.00;99.90;;;;;;4995812;28;20104;-67
2022/12/29 11:08:12;;;;;;;16.27;2.15;;;9.00;99.90;;;;;;5033119;28;20042;-67
2022/12/29 11:10:43;;;;;;;15.70;2.78;;;9.00;99.90;;;;;;5027410;28;20041;-68
2022/12/29 11:13:48;;;;;;;14.20;3.30;;;9.00;99.90;;;;;;5029067;28;20106;-67
2022/12/29 11:16:14;;;;;;;14.63;2.13;;;9.10;99.90;;;;;;5019357;28;20071;-67
2022/12/29 11:18:42;;;;;;;15.63;3.00;;;9.10;99.90;;;;;;5037086;28;20437;-67
2022/12/29 11:21:29;;;;;;;12.23;3.13;;;9.10;99.90;;;;;;5034122;28;20046;-67
2022/12/29 11:24:04;;;;;;;15.70;2.33;;;9.10;99.90;;;;;;5023116;28;20045;-67
2022/12/29 11:26:31;;;;;;;11.63;1.85;;;9.10;99.90;;;;;;5021728;28;20164;-67
2022/12/29 11:29:05;;;;;;;9.45;2.83;;;9.20;99.90;;;;;;5034397;22;20041;-71
2022/12/29 11:31:41;;;;;;;17.23;3.55;;;9.20;99.90;;;;;;5016819;28;20129;-70
2022/12/29 11:34:07;;;;;;;11.90;2.53;;;9.20;99.90;;;;;;5021098;28;20071;-70
2022/12/29 11:36:35;;;;;;;14.57;2.03;;;9.20;99.90;;;;;;5035774;28;20462;-70
2022/12/29 11:39:01;;;;;;;16.17;2.75;;;9.20;99.90;;;;;;5014928;28;20068;-70
2022/12/29 11:41:31;;;;;;;16.58;2.97;;;9.30;99.90;;;;;;5012426;28;20037;-70
2022/12/29 11:44:04;;;;;;;14.60;3.95;;;9.40;99.90;;;;;;5027457;28;20045;-70
2022/12/29 11:46:36;;;;;;;14.57;2.72;;;9.40;99.90;;;;;;5029729;28;20041;-71
2022/12/29 11:49:04;;;;;;;12.82;2.22;;;9.40;99.90;;;;;;5029453;28;20065;-70
2022/12/29 11:51:45;;;;;;;7.25;1.77;;;9.50;99.90;;;;;;5015718;28;20129;-70
2022/12/29 11:54:19;;;;;;;14.65;2.45;;;9.50;99.90;;;;;;5026323;28;20119;-71
2022/12/29 11:56:45;;;;;;;8.57;1.45;;;9.60;99.90;;;;;;5032904;28;20551;-71
2022/12/29 11:59:36;;;;;;;6.50;1.80;;;9.80;99.90;;;;;;5025182;28;20488;-71
2022/12/29 12:02:27;;;;;;;9.90;1.83;;;9.80;99.90;;;;;;5036416;28;20115;-70
2022/12/29 12:05:12;;;;;;;9.05;1.80;;;9.80;99.90;;;;;;5033045;28;20033;-70
2022/12/29 12:08:09;;;;;;;16.05;1.73;;;9.80;99.90;;;;;;5028051;28;20077;-70
2022/12/29 12:10:45;;;;;;;8.50;1.50;;;9.80;99.90;;;;;;5009179;28;20553;-70
2022/12/29 12:13:29;;;;;;;13.75;2.08;;;9.80;99.90;;;;;;5021230;28;20144;-70
2022/12/29 12:16:17;;;;;;;6.38;1.25;;;9.70;99.90;;;;;;5033060;28;20075;-71
2022/12/29 12:18:54;;;;;;;;;;;9.60;99.90;;;;;;5034972;28;20113;-71
2022/12/29 12:21:34;;;;;;;6.10;1.20;;;9.60;99.90;;;;;;5022625;28;20037;-70
2022/12/29 12:24:18;;;;;;;7.43;1.67;;;9.50;99.90;;;;;;5032757;28;20122;-70
2022/12/29 12:26:55;;;;;;;5.30;1.20;;;9.60;99.90;;;;;;5021337;28;20127;-70
2022/12/29 12:29:35;;;;;;;9.05;1.05;;;9.60;99.90;;;;;;5035202;28;20557;-70
2022/12/29 12:32:43;;;;;;;6.82;1.05;;;9.60;99.90;;;;;;5024128;28;20053;-69
2022/12/29 12:35:26;;;;;;;4.78;0.73;;;9.60;99.90;;;;;;4983035;28;20038;-69
2022/12/29 12:38:16;;;;;;;6.85;1.15;;;9.60;99.90;;;;;;4985185;28;20575;-69
2022/12/29 12:41:09;;;;;;;5.57;0.93;;;9.60;99.90;;;;;;5005666;28;20054;-70
2022/12/29 12:43:41;;;;;;;4.70;1.02;;;9.60;99.90;;;;;;5039141;28;20131;-70
2022/12/29 12:46:14;;;;;;;7.70;1.55;;;9.60;99.90;;;;;;5023158;28;20122;-69
2022/12/29 12:48:58;;;;;;;7.22;1.30;;;9.60;99.90;;;;;;5023475;28;20026;-69
2022/12/29 12:51:35;;;;;;;6.03;1.20;;;9.50;99.90;;;;;;5033418;28;20063;-69
2022/12/29 12:54:31;;;;;;;9.63;1.45;;;9.60;99.90;;;;;;5025301;28;20033;-69
2022/12/29 12:57:12;;;;;;;6.60;1.55;;;9.60;99.90;;;;;;5021116;28;20537;-69
2022/12/29 13:00:01;;;;;;;4.93;0.90;;;9.60;99.90;;;;;;5027947;28;20403;-69
2022/12/29 13:02:39;;;;;;;5.63;1.35;;;9.50;99.90;;;;;;5028464;28;20095;-68
2022/12/29 13:05:17;;;;;;;11.00;1.38;;;9.50;99.90;;;;;;5033000;28;20076;-69
2022/12/29 13:08:01;;;;;;;;;;;9.50;99.90;;;;;;5036061;28;20093;-69
2022/12/29 13:10:41;;;;;;;8.40;1.10;;;9.50;99.90;;;;;;5035020;28;19920;-70
2022/12/29 13:13:16;;;;;;;7.43;1.42;;;9.50;99.90;;;;;;5023663;28;20280;-69
2022/12/29 13:15:49;;;;;;;7.00;1.45;;;9.40;99.90;;;;;;5031683;28;20045;-69
2022/12/29 13:18:21;;;;;;;7.43;1.33;;;9.50;99.90;;;;;;5027361;28;20120;-69
2022/12/29 13:20:52;;;;;;;5.93;1.60;;;9.50;99.90;;;;;;5025916;28;20110;-69
2022/12/29 13:23:35;;;;;;;3.72;0.90;;;9.50;99.90;;;;;;5021104;28;20052;-71
2022/12/29 13:26:45;;;;;;;16.58;1.67;;;9.40;99.90;;;;;;5014759;28;20186;-71
2022/12/29 13:29:16;;;;;;;7.05;1.45;;;9.50;99.90;;;;;;4951797;28;20043;-69
2022/12/29 13:31:50;;;;;;;4.47;1.40;;;9.40;99.90;;;;;;5000799;28;20053;-69
2022/12/29 13:34:27;;;;;;;5.05;1.20;;;9.40;99.90;;;;;;5018489;28;20046;-69
2022/12/29 13:36:58;;;;;;;5.97;1.63;;;9.50;99.90;;;;;;5039025;28;20045;-69
2022/12/29 13:39:38;;;;;;;11.55;1.10;;;9.40;99.90;;;;;;5028721;28;20111;-69
2022/12/29 13:42:05;;;;;;;10.05;1.23;;;9.50;99.90;;;;;;5017745;28;20116;-70
2022/12/29 13:44:35;;;;;;;7.57;1.00;;;9.60;99.90;;;;;;5018945;28;20086;-69
2022/12/29 13:47:12;;;;;;;2.70;1.13;;;9.60;99.90;;;;;;5027810;28;20431;-69
2022/12/29 13:49:38;;;;;;;7.75;1.25;;;9.60;99.90;;;;;;5029127;28;20041;-69